Time;durP1;ratioP1;P1;durP2;ratioP2;P2;SDS_P1;SDS_P2;PMS_P1;PMS_P2;Temp;Humidity;BMP_temperature;BMP_pressure;BME280_temperature;BME280_humidity;BME280_pressure;Samples;Min_cycle;Max_cycle;Signal;HPM_P1;HPM_P2
2023/01/22 00:00:28;;;;;;;25.33;16.50;;;;;;;2.45;74.01;101286.25;5044705;28;20814;-80
2023/01/22 00:02:53;;;;;;;30.65;16.90;;;;;;;2.50;73.90;101290.28;5044424;28;20258;-81
2023/01/22 00:05:19;;;;;;;26.20;15.17;;;;;;;2.45;73.99;101293.47;5044370;28;20037;-81
2023/01/22 00:07:44;;;;;;;28.52;15.93;;;;;;;2.51;73.85;101294.63;5044063;28;20258;-81
2023/01/22 00:10:10;;;;;;;27.85;17.92;;;;;;;2.51;73.32;101287.41;5044127;28;20115;-81
2023/01/22 00:12:35;;;;;;;24.98;14.80;;;;;;;2.48;73.97;101277.00;5044011;28;20028;-81
2023/01/22 00:15:00;;;;;;;30.27;14.73;;;;;;;2.46;73.89;101268.25;5043968;28;20048;-81
2023/01/22 00:17:26;;;;;;;25.27;14.63;;;;;;;2.43;74.03;101257.81;5044041;28;20028;-81
2023/01/22 00:19:51;;;;;;;24.48;16.42;;;;;;;2.38;73.50;101255.63;5044415;28;20119;-80
2023/01/22 00:22:16;;;;;;;21.65;14.55;;;;;;;2.29;73.88;101257.53;5044694;28;20128;-80
2023/01/22 00:24:42;;;;;;;27.37;14.90;;;;;;;2.32;73.71;101250.94;5043774;28;20032;-80
2023/01/22 00:27:07;;;;;;;22.05;13.48;;;;;;;2.38;74.22;101239.47;5043854;28;20254;-80
2023/01/22 00:29:33;;;;;;;27.10;14.52;;;;;;;2.32;73.54;101245.56;5042431;28;20087;-80
2023/01/22 00:31:59;;;;;;;28.60;15.93;;;;;;;2.39;74.09;101249.25;5043769;28;20044;-81
2023/01/22 00:34:24;;;;;;;21.35;12.52;;;;;;;2.48;73.98;101255.47;5043986;28;20581;-81
2023/01/22 00:36:50;;;;;;;26.60;14.38;;;;;;;2.55;73.23;101247.50;5043406;28;20025;-82
2023/01/22 00:39:15;;;;;;;25.73;15.52;;;;;;;2.54;72.88;101253.91;5041928;28;20478;-81
2023/01/22 00:41:41;;;;;;;19.53;11.23;;;;;;;2.50;73.36;101244.50;5043203;28;20028;-81
2023/01/22 00:44:06;;;;;;;23.02;13.50;;;;;;;2.50;73.38;101247.19;5043874;28;20348;-80
2023/01/22 00:46:32;;;;;;;23.08;14.48;;;;;;;2.35;73.49;101239.84;5044091;28;20180;-81
2023/01/22 00:48:57;;;;;;;28.08;14.45;;;;;;;2.35;73.53;101242.53;5041756;28;20037;-81
2023/01/22 00:51:22;;;;;;;25.73;14.50;;;;;;;2.47;73.48;101234.91;5043167;28;20048;-82
2023/01/22 00:53:48;;;;;;;24.27;14.25;;;;;;;2.50;73.39;101239.94;5043687;28;20094;-80
2023/01/22 00:56:13;;;;;;;26.17;14.85;;;;;;;2.51;72.79;101235.41;5043272;28;20036;-80
2023/01/22 00:58:39;;;;;;;26.70;14.68;;;;;;;2.50;72.71;101241.81;5043143;28;20051;-79
2023/01/22 01:01:05;;;;;;;18.92;13.07;;;;;;;2.49;73.45;101234.72;5043647;28;20402;-80
2023/01/22 01:03:31;;;;;;;22.45;14.88;;;;;;;2.51;73.15;101227.31;5043170;28;20041;-81
2023/01/22 01:06:05;;;;;;;25.00;14.95;;;;;;;2.52;72.64;101223.63;5043055;28;20086;-79
2023/01/22 01:08:37;;;;;;;29.98;15.07;;;;;;;2.56;73.33;101223.09;5042515;28;21151;-80
2023/01/22 01:11:06;;;;;;;26.35;16.70;;;;;;;2.51;72.90;101221.94;5043062;28;20144;-79
2023/01/22 01:13:36;;;;;;;24.15;14.40;;;;;;;2.49;73.36;101218.56;5043471;28;20033;-80
2023/01/22 01:16:07;;;;;;;26.02;13.85;;;;;;;2.41;72.91;101223.00;5043219;28;20031;-80
2023/01/22 01:18:33;;;;;;;23.92;13.82;;;;;;;2.43;72.95;101214.75;5042747;28;20090;-80
2023/01/22 01:20:59;;;;;;;21.15;13.05;;;;;;;2.40;73.53;101220.47;5043519;28;20037;-80
2023/01/22 01:23:26;;;;;;;21.55;13.18;;;;;;;2.47;73.51;101215.22;5043708;28;20041;-80
2023/01/22 01:25:51;;;;;;;18.88;12.13;;;;;;;2.48;72.72;101230.38;5042559;28;20516;-79
2023/01/22 01:28:17;;;;;;;26.65;12.10;;;;;;;2.53;73.26;101223.44;5041985;28;20045;-80
2023/01/22 01:30:43;;;;;;;22.17;12.02;;;;;;;2.61;73.09;101222.56;5043176;28;20159;-80
2023/01/22 01:33:09;;;;;;;21.88;12.98;;;;;;;2.59;72.82;101235.38;5043086;28;20033;-80
2023/01/22 01:35:34;;;;;;;22.95;13.43;;;;;;;2.62;73.07;101221.56;5044821;28;20087;-80
2023/01/22 01:38:01;;;;;;;21.30;11.88;;;;;;;2.48;72.63;101233.91;5046307;28;20033;-80
2023/01/22 01:40:26;;;;;;;26.25;14.27;;;;;;;2.48;73.03;101225.00;5047279;28;20116;-80
2023/01/22 01:42:51;;;;;;;21.70;13.75;;;;;;;2.42;73.14;101227.34;5047191;28;20166;-80
2023/01/22 01:45:33;;;;;;;18.67;11.93;;;;;;;2.36;73.67;101230.75;5047344;28;20053;-77
2023/01/22 01:48:25;;;;;;;24.52;12.18;;;;;;;2.42;74.32;101230.03;5045499;28;20799;-80
2023/01/22 01:51:01;;;;;;;26.08;14.60;;;;;;;2.45;74.50;101231.56;5046693;28;20851;-80
2023/01/22 01:53:27;;;;;;;20.75;12.45;;;;;;;2.31;74.08;101231.28;5047517;28;20028;-80
2023/01/22 01:55:55;;;;;;;22.17;12.57;;;;;;;2.32;74.95;101234.78;5046439;28;20663;-81
2023/01/22 01:58:21;;;;;;;26.95;14.32;;;;;;;2.26;74.34;101225.56;5045489;28;20036;-80
2023/01/22 02:00:54;;;;;;;29.38;13.68;;;;;;;2.34;75.36;101222.00;5047164;28;20037;-81
2023/01/22 02:03:19;;;;;;;24.75;13.23;;;;;;;2.37;74.62;101220.81;5046979;28;20572;-80
2023/01/22 02:05:44;;;;;;;28.48;13.55;;;;;;;2.46;74.83;101225.19;5046670;28;20107;-80
2023/01/22 02:08:10;;;;;;;23.33;11.65;;;;;;;2.42;75.13;101221.97;5044824;28;20124;-81
2023/01/22 02:10:36;;;;;;;23.20;13.63;;;;;;;2.32;74.45;101219.47;5046866;28;20390;-79
2023/01/22 02:13:08;;;;;;;19.45;12.13;;;;;;;2.27;75.14;101215.63;5046286;28;20043;-79
2023/01/22 02:15:35;;;;;;;22.52;13.50;;;;;;;2.35;75.18;101215.63;5046397;28;20040;-80
2023/01/22 02:18:01;;;;;;;25.30;12.77;;;;;;;2.39;75.53;101221.47;5044546;28;20478;-81
2023/01/22 02:20:26;;;;;;;25.03;13.13;;;;;;;2.39;75.15;101219.63;5046486;28;20036;-80
2023/01/22 02:22:51;;;;;;;20.17;11.25;;;;;;;2.41;75.00;101212.22;5046412;28;20774;-80
2023/01/22 02:25:17;;;;;;;22.00;11.45;;;;;;;2.31;74.72;101217.81;5046187;28;20561;-80
2023/01/22 02:27:43;;;;;;;26.23;12.70;;;;;;;2.38;75.30;101217.94;5044097;28;20033;-80
2023/01/22 02:30:09;;;;;;;20.58;11.30;;;;;;;2.40;74.55;101221.31;5046155;28;20992;-80
2023/01/22 02:32:34;;;;;;;20.65;12.55;;;;;;;2.28;75.26;101217.34;5046044;28;20035;-80
2023/01/22 02:34:59;;;;;;;24.15;13.55;;;;;;;2.36;74.87;101213.78;5046507;28;20065;-80
2023/01/22 02:37:24;;;;;;;19.02;10.73;;;;;;;2.44;75.30;101211.03;5045426;28;21238;-80
2023/01/22 02:39:50;;;;;;;17.48;12.35;;;;;;;2.44;74.53;101205.66;5044718;28;20068;-80
2023/01/22 02:42:15;;;;;;;20.42;11.43;;;;;;;2.38;75.00;101212.56;5045687;28;20040;-80
2023/01/22 02:44:40;;;;;;;25.63;14.35;;;;;;;2.41;74.65;101214.91;5046236;28;20651;-78
2023/01/22 02:47:06;;;;;;;21.13;11.35;;;;;;;2.45;74.50;101208.16;5045836;28;20067;-80
2023/01/22 02:49:31;;;;;;;18.55;11.40;;;;;;;2.45;74.21;101204.63;5043921;28;20044;-80
2023/01/22 02:51:56;;;;;;;25.30;12.63;;;;;;;2.52;74.11;101202.09;5045749;28;20110;-79
2023/01/22 02:54:21;;;;;;;28.25;11.27;;;;;;;2.53;73.80;101203.75;5045489;28;21239;-80
2023/01/22 02:56:47;;;;;;;20.40;11.50;;;;;;;2.46;73.56;101206.31;5045503;28;20036;-80
2023/01/22 02:59:13;;;;;;;23.30;12.27;;;;;;;2.42;74.22;101211.19;5044476;28;20032;-80
2023/01/22 03:01:38;;;;;;;22.52;11.05;;;;;;;2.36;73.42;101200.31;5045593;28;20029;-80
2023/01/22 03:04:10;;;;;;;18.52;10.32;;;;;;;2.27;74.88;101204.88;5044492;28;20114;-81
2023/01/22 03:06:41;;;;;;;22.63;13.70;;;;;;;2.34;74.90;101205.84;5045799;28;20585;-78
2023/01/22 03:09:09;;;;;;;18.50;11.25;;;;;;;2.41;74.17;101206.84;5043467;28;20060;-80
2023/01/22 03:11:36;;;;;;;22.13;12.00;;;;;;;2.43;74.02;101203.97;5045500;28;20063;-79
2023/01/22 03:22:14;;;;;;;18.70;11.27;;;;;;;2.40;74.45;101191.69;5044959;28;20083;-80
2023/01/22 03:24:40;;;;;;;18.83;9.90;;;;;;;2.49;74.27;101186.25;5045561;28;20467;-80
2023/01/22 03:27:06;;;;;;;18.60;10.85;;;;;;;2.45;74.46;101185.78;5045177;28;20028;-80
2023/01/22 03:29:31;;;;;;;19.83;10.95;;;;;;;2.38;74.80;101180.25;5043898;28;20064;-78
2023/01/22 03:31:56;;;;;;;18.63;10.98;;;;;;;2.26;75.01;101184.38;5044763;28;20063;-79
2023/01/22 03:34:24;;;;;;;23.77;11.63;;;;;;;2.28;74.81;101179.66;5044719;28;20501;-81
2023/01/22 03:36:49;;;;;;;18.25;10.25;;;;;;;2.31;75.39;101177.44;5045555;28;20290;-81
2023/01/22 03:39:14;;;;;;;24.03;11.57;;;;;;;2.39;75.00;101179.25;5043298;28;20037;-80
2023/01/22 03:41:40;;;;;;;16.40;8.15;;;;;;;2.43;75.05;101188.66;5045100;28;20384;-79
2023/01/22 03:44:08;;;;;;;18.25;10.35;;;;;;;2.47;75.11;101178.38;5045090;28;20036;-81
2023/01/22 03:46:34;;;;;;;18.00;10.02;;;;;;;2.31;75.33;101187.38;5044917;28;20048;-80
2023/01/22 03:48:59;;;;;;;18.08;10.38;;;;;;;2.30;76.04;101188.38;5043102;28;20045;-80
2023/01/22 03:51:25;;;;;;;18.60;10.32;;;;;;;2.45;75.86;101191.16;5043181;28;20090;-80
2023/01/22 03:53:50;;;;;;;20.02;10.82;;;;;;;2.42;75.95;101181.59;5044889;28;20442;-80
2023/01/22 03:56:19;;;;;;;17.50;11.38;;;;;;;2.41;75.51;101185.31;5044958;28;20029;-80
2023/01/22 03:58:45;;;;;;;20.85;11.90;;;;;;;2.34;76.38;101187.00;5042005;28;20064;-80
2023/01/22 04:01:13;;;;;;;21.77;12.27;;;;;;;2.35;76.20;101194.06;5044487;28;20091;-80
2023/01/22 04:03:38;;;;;;;17.35;9.27;;;;;;;2.35;76.59;101193.22;5044213;28;20292;-77
2023/01/22 04:06:05;;;;;;;13.55;10.25;;;;;;;2.28;76.85;101193.13;5043911;28;20536;-80
2023/01/22 04:08:32;;;;;;;16.45;9.93;;;;;;;2.28;76.47;101190.41;5042769;28;20043;-80
2023/01/22 04:10:59;;;;;;;18.60;10.88;;;;;;;2.17;77.20;101189.78;5043863;28;20035;-79
2023/01/22 04:13:26;;;;;;;17.15;10.43;;;;;;;2.14;77.30;101190.09;5044102;28;20094;-80
2023/01/22 04:15:52;;;;;;;18.35;9.63;;;;;;;2.13;77.83;101188.44;5043861;28;20541;-80
2023/01/22 04:18:17;;;;;;;16.77;10.52;;;;;;;2.24;78.07;101189.09;5042765;28;20090;-80
2023/01/22 04:20:44;;;;;;;21.88;10.30;;;;;;;2.31;77.19;101190.06;5044095;28;20037;-81
2023/01/22 04:23:09;;;;;;;21.77;12.18;;;;;;;2.33;77.21;101190.72;5044073;28;20133;-81
2023/01/22 04:25:35;;;;;;;20.75;10.15;;;;;;;2.37;76.99;101185.81;5044324;28;20024;-81
2023/01/22 04:28:01;;;;;;;18.33;9.77;;;;;;;2.22;77.79;101182.00;5042420;28;20044;-80
2023/01/22 04:30:26;;;;;;;18.88;11.38;;;;;;;2.26;77.81;101187.06;5044162;28;20098;-80
2023/01/22 04:32:51;;;;;;;23.47;10.97;;;;;;;2.38;77.74;101191.03;5043999;28;20289;-80
2023/01/22 04:35:17;;;;;;;19.23;11.57;;;;;;;2.36;77.43;101198.44;5044141;28;20325;-81
2023/01/22 04:37:42;;;;;;;20.13;11.32;;;;;;;2.29;77.45;101198.31;5042375;28;20670;-81
2023/01/22 04:40:08;;;;;;;18.05;9.43;;;;;;;2.22;77.63;101194.63;5043320;28;20036;-80
2023/01/22 04:42:34;;;;;;;19.58;10.88;;;;;;;2.26;77.77;101181.69;5043003;28;20032;-79
2023/01/22 04:44:59;;;;;;;18.42;11.68;;;;;;;2.27;77.37;101186.03;5042421;28;20060;-80
2023/01/22 04:47:24;;;;;;;20.37;11.20;;;;;;;2.30;77.31;101188.38;5043140;28;20033;-79
2023/01/22 04:49:49;;;;;;;20.00;12.40;;;;;;;2.31;78.19;101190.91;5042545;28;20305;-79
2023/01/22 04:52:15;;;;;;;17.25;10.80;;;;;;;2.31;77.58;101190.91;5043664;28;20320;-80
2023/01/22 04:54:40;;;;;;;21.50;11.40;;;;;;;2.16;78.06;101188.09;5043579;28;20037;-80
2023/01/22 04:57:06;;;;;;;20.83;10.57;;;;;;;2.18;78.85;101194.13;5043494;28;20028;-80
2023/01/22 04:59:31;;;;;;;19.35;11.95;;;;;;;2.30;78.07;101201.81;5041653;28;20094;-80
2023/01/22 05:01:56;;;;;;;19.90;11.37;;;;;;;2.21;77.81;101196.50;5043582;28;20448;-80
2023/01/22 05:04:22;;;;;;;18.67;10.50;;;;;;;2.21;78.50;101193.81;5043562;28;20269;-80
2023/01/22 05:06:48;;;;;;;16.70;10.05;;;;;;;2.35;77.71;101188.69;5043713;28;20266;-80
2023/01/22 05:09:13;;;;;;;20.55;12.38;;;;;;;2.16;77.92;101188.09;5041507;28;20106;-80
2023/01/22 05:11:39;;;;;;;20.33;11.55;;;;;;;2.19;78.49;101193.13;5043649;28;20116;-79
2023/01/22 05:14:04;;;;;;;16.60;10.52;;;;;;;2.25;78.34;101190.75;5042766;28;20498;-80
2023/01/22 05:16:30;;;;;;;20.38;10.85;;;;;;;2.27;78.24;101194.09;5042367;28;20032;-80
2023/01/22 05:18:55;;;;;;;22.40;12.95;;;;;;;2.27;77.80;101178.81;5041923;28;20036;-81
2023/01/22 05:21:20;;;;;;;21.50;11.68;;;;;;;2.32;78.06;101181.81;5043664;28;20033;-80
2023/01/22 05:23:46;;;;;;;16.45;10.05;;;;;;;2.32;77.85;101195.25;5043221;28;20062;-80
2023/01/22 05:26:11;;;;;;;19.92;10.95;;;;;;;2.30;78.49;101191.06;5043028;28;20025;-80
2023/01/22 05:28:36;;;;;;;16.10;10.68;;;;;;;2.29;77.52;101184.00;5041891;28;20376;-78
2023/01/22 05:31:01;;;;;;;20.77;11.00;;;;;;;2.28;78.32;101179.66;5043053;28;20385;-79
2023/01/22 05:33:28;;;;;;;16.98;10.75;;;;;;;2.20;78.29;101188.56;5042874;28;20184;-79
2023/01/22 05:35:57;;;;;;;21.02;12.35;;;;;;;2.25;79.00;101188.06;5042903;28;20049;-79
2023/01/22 05:38:23;;;;;;;16.33;10.10;;;;;;;2.30;77.68;101186.50;5041154;28;20064;-80
2023/01/22 05:40:48;;;;;;;22.02;11.80;;;;;;;2.39;78.06;101189.19;5043058;28;20033;-80
2023/01/22 05:43:13;;;;;;;21.10;11.23;;;;;;;2.33;78.03;101190.72;5043238;28;20028;-77
2023/01/22 05:45:38;;;;;;;20.55;11.07;;;;;;;2.15;78.43;101190.97;5043181;28;20436;-80
2023/01/22 05:48:04;;;;;;;18.13;11.18;;;;;;;2.19;78.65;101194.97;5041012;28;20033;-79
2023/01/22 05:50:29;;;;;;;17.08;9.70;;;;;;;2.14;78.75;101190.09;5042896;28;20484;-80
2023/01/22 05:52:54;;;;;;;17.17;10.25;;;;;;;2.22;79.48;101189.25;5042932;28;20075;-80
2023/01/22 05:55:20;;;;;;;17.08;9.77;;;;;;;2.30;79.15;101193.75;5042757;28;20080;-79
2023/01/22 05:57:46;;;;;;;19.00;10.38;;;;;;;2.16;78.89;101193.47;5041161;28;20430;-81
2023/01/22 06:00:12;;;;;;;18.58;11.70;;;;;;;2.20;78.59;101193.94;5042889;28;20029;-80
2023/01/22 06:02:37;;;;;;;17.58;9.60;;;;;;;2.26;78.88;101195.13;5043008;28;20029;-80
2023/01/22 06:05:03;;;;;;;17.83;9.32;;;;;;;2.30;78.42;101191.91;5042885;28;20033;-78
2023/01/22 06:07:29;;;;;;;22.15;11.65;;;;;;;2.35;78.03;101190.53;5042274;28;20029;-80
2023/01/22 06:09:54;;;;;;;21.25;13.38;;;;;;;2.40;77.73;101190.88;5042122;28;20033;-80
2023/01/22 06:12:20;;;;;;;18.17;10.70;;;;;;;2.35;78.01;101188.69;5042678;28;20033;-79
2023/01/22 06:14:45;;;;;;;19.13;11.18;;;;;;;2.32;78.52;101197.09;5042305;28;20302;-80
2023/01/22 06:17:10;;;;;;;19.10;9.95;;;;;;;2.32;78.05;101197.09;5042045;28;20139;-78
2023/01/22 06:19:35;;;;;;;17.33;9.35;;;;;;;2.33;77.78;101188.88;5041550;28;20036;-81
2023/01/22 06:22:01;;;;;;;18.33;11.00;;;;;;;2.40;77.92;101193.56;5044630;28;20055;-79
2023/01/22 06:24:26;;;;;;;19.17;10.00;;;;;;;2.37;77.92;101183.97;5046242;28;20063;-80
2023/01/22 06:26:51;;;;;;;18.83;10.03;;;;;;;2.35;77.72;101186.00;5046057;28;20116;-80
2023/01/22 06:29:17;;;;;;;17.07;8.50;;;;;;;2.25;78.20;101194.28;5044925;28;20270;-80
2023/01/22 06:31:42;;;;;;;12.45;8.30;;;;;;;2.25;78.72;101190.75;5046179;28;20739;-78
2023/01/22 06:34:08;;;;;;;18.33;10.27;;;;;;;2.27;78.74;101196.81;5046108;28;20371;-80
2023/01/22 06:36:33;;;;;;;18.90;9.75;;;;;;;2.33;78.25;101199.66;5046574;28;20257;-80
2023/01/22 06:38:58;;;;;;;19.00;9.90;;;;;;;2.34;78.40;101200.47;5044217;28;20040;-79
2023/01/22 06:41:23;;;;;;;20.58;11.63;;;;;;;2.37;78.11;101193.91;5045687;28;20045;-80
2023/01/22 06:43:49;;;;;;;14.77;9.10;;;;;;;2.32;78.08;101202.47;5045639;28;20541;-79
2023/01/22 06:46:14;;;;;;;19.90;10.35;;;;;;;2.31;77.69;101203.50;5045577;28;20055;-79
2023/01/22 06:48:42;;;;;;;21.67;10.98;;;;;;;2.35;77.93;101202.16;5044202;28;20041;-80
2023/01/22 06:51:08;;;;;;;15.63;9.00;;;;;;;2.44;77.55;101209.16;5045827;28;20044;-80
2023/01/22 06:53:33;;;;;;;21.55;11.90;;;;;;;2.37;77.93;101216.28;5045895;28;20033;-80
2023/01/22 06:55:59;;;;;;;15.43;9.27;;;;;;;2.34;77.69;101205.84;5045244;28;20037;-79
2023/01/22 06:58:24;;;;;;;16.25;10.23;;;;;;;2.33;78.36;101218.47;5044292;28;20067;-79
2023/01/22 07:00:49;;;;;;;18.20;9.38;;;;;;;2.36;78.11;101219.97;5045773;28;20032;-80
2023/01/22 07:03:15;;;;;;;21.42;10.02;;;;;;;2.27;78.23;101215.63;5045664;28;20037;-80
2023/01/22 07:05:40;;;;;;;15.00;8.10;;;;;;;2.22;78.58;101211.63;5045683;28;20029;-79
2023/01/22 07:08:05;;;;;;;19.35;10.52;;;;;;;2.29;78.69;101219.00;5043707;28;20033;-80
2023/01/22 07:10:31;;;;;;;15.10;9.25;;;;;;;2.31;78.97;101216.97;5045157;28;20033;-80
2023/01/22 07:13:00;;;;;;;18.38;9.57;;;;;;;2.40;78.50;101221.31;5045488;28;20029;-80
2023/01/22 07:15:25;;;;;;;14.48;8.70;;;;;;;2.42;77.95;101229.22;5045441;28;20422;-79
2023/01/22 07:17:52;;;;;;;19.08;10.43;;;;;;;2.37;78.22;101231.59;5043422;28;20037;-80
2023/01/22 07:20:19;;;;;;;13.90;8.75;;;;;;;2.36;78.59;101233.44;5045633;28;20081;-80
2023/01/22 07:22:44;;;;;;;15.40;9.35;;;;;;;2.35;78.35;101239.84;5045395;28;20754;-80
2023/01/22 07:25:09;;;;;;;17.17;9.03;;;;;;;2.39;78.20;101235.78;5045187;28;20033;-80
2023/01/22 07:27:37;;;;;;;16.80;8.57;;;;;;;2.44;78.58;101244.16;5045117;28;20888;-79
2023/01/22 07:30:03;;;;;;;15.52;9.80;;;;;;;2.48;78.33;101249.22;5044994;28;20107;-80
2023/01/22 07:32:28;;;;;;;17.13;9.43;;;;;;;2.41;78.54;101249.91;5044471;28;20273;-79
2023/01/22 07:34:53;;;;;;;14.25;7.90;;;;;;;2.44;78.93;101248.75;5044824;28;20485;-79
2023/01/22 07:37:19;;;;;;;13.60;8.27;;;;;;;2.45;77.98;101256.63;5044438;28;20261;-80
2023/01/22 07:39:44;;;;;;;15.87;9.63;;;;;;;2.35;78.35;101250.59;5043108;28;20952;-79
2023/01/22 07:42:11;;;;;;;15.82;9.10;;;;;;;2.40;78.45;101264.38;5044595;28;20269;-81
2023/01/22 07:44:39;;;;;;;15.80;9.13;;;;;;;2.42;78.82;101256.16;5044458;28;20065;-80
2023/01/22 07:47:04;;;;;;;14.73;8.68;;;;;;;2.40;78.43;101259.00;5044936;28;20048;-80
2023/01/22 07:49:29;;;;;;;32.67;18.17;;;;;;;2.42;78.87;101262.34;5042813;28;20029;-80
2023/01/22 07:51:55;;;;;;;30.33;20.95;;;;;;;2.43;78.06;101264.03;5045300;28;20029;-80
2023/01/22 07:54:20;;;;;;;20.87;11.13;;;;;;;2.33;79.10;101263.41;5045098;28;20040;-80
2023/01/22 07:56:47;;;;;;;17.35;11.32;;;;;;;2.36;78.36;101264.91;5044824;28;20290;-80
2023/01/22 07:59:12;;;;;;;20.05;11.30;;;;;;;2.38;78.92;101266.41;5043098;28;20544;-80
2023/01/22 08:01:37;;;;;;;14.27;9.68;;;;;;;2.43;78.78;101274.81;5044257;28;20044;-80
2023/01/22 08:04:03;;;;;;;16.10;9.25;;;;;;;2.51;78.26;101279.31;5044485;28;20631;-81
2023/01/22 08:06:28;;;;;;;18.67;9.75;;;;;;;2.51;78.63;101276.63;5044647;28;20041;-80
2023/01/22 08:08:54;;;;;;;15.20;8.75;;;;;;;2.46;78.33;101273.63;5042927;28;20048;-79
2023/01/22 08:11:19;;;;;;;13.05;7.80;;;;;;;2.43;78.47;101273.97;5043221;28;20112;-78
2023/01/22 08:13:44;;;;;;;17.00;10.68;;;;;;;2.42;78.50;101286.59;5044034;28;20021;-80
2023/01/22 08:16:10;;;;;;;15.90;8.88;;;;;;;2.40;78.41;101283.22;5044153;28;20107;-80
2023/01/22 08:18:35;;;;;;;15.57;9.65;;;;;;;2.26;78.86;101287.47;5043973;28;20092;-81
2023/01/22 08:21:01;;;;;;;11.63;7.60;;;;;;;2.35;79.08;101282.06;5044329;28;20115;-80
2023/01/22 08:23:27;;;;;;;12.50;7.72;;;;;;;2.32;79.21;101278.69;5044055;28;20029;-80
2023/01/22 08:25:52;;;;;;;12.73;8.65;;;;;;;2.40;79.89;101282.41;5044195;28;20044;-79
2023/01/22 08:28:18;;;;;;;17.23;9.13;;;;;;;2.38;79.01;101277.16;5042641;28;20044;-80
2023/01/22 08:30:43;;;;;;;15.45;7.97;;;;;;;2.43;78.94;101280.19;5044284;28;20033;-79
2023/01/22 08:33:09;;;;;;;19.77;9.10;;;;;;;2.52;78.73;101283.69;5044091;28;20040;-81
2023/01/22 08:35:37;;;;;;;15.60;8.43;;;;;;;2.56;78.50;101278.81;5043859;28;20045;-79
2023/01/22 08:38:02;;;;;;;16.42;9.80;;;;;;;2.56;78.33;101278.81;5041814;28;20045;-80
2023/01/22 08:40:28;;;;;;;17.30;10.40;;;;;;;2.45;77.95;101280.88;5043886;28;20060;-78
2023/01/22 08:42:53;;;;;;;14.57;8.55;;;;;;;2.43;78.51;101271.28;5043415;28;20285;-79
2023/01/22 08:45:19;;;;;;;15.10;8.25;;;;;;;2.51;78.86;101281.19;5043423;28;20053;-80
2023/01/22 08:47:44;;;;;;;19.00;10.73;;;;;;;2.46;79.36;101279.03;5041328;28;20437;-78
2023/01/22 08:50:10;;;;;;;15.93;9.57;;;;;;;2.50;78.69;101284.91;5043802;28;20047;-80
2023/01/22 08:52:36;;;;;;;18.50;10.52;;;;;;;2.55;78.79;101282.50;5044031;28;20032;-79
2023/01/22 08:55:01;;;;;;;13.80;7.97;;;;;;;2.60;79.14;101288.22;5043583;28;20036;-80
2023/01/22 08:57:26;;;;;;;15.45;7.75;;;;;;;2.56;78.65;101278.81;5042800;28;20063;-79
2023/01/22 08:59:51;;;;;;;18.33;9.73;;;;;;;2.63;78.85;101285.19;5041877;28;20585;-77
2023/01/22 09:02:17;;;;;;;16.73;10.45;;;;;;;2.63;78.66;101290.56;5043023;28;20324;-79
2023/01/22 09:04:42;;;;;;;13.75;8.68;;;;;;;2.47;78.78;101280.69;5042934;28;20041;-80
2023/01/22 09:07:07;;;;;;;14.03;8.67;;;;;;;2.52;79.48;101281.00;5043184;28;20484;-79
2023/01/22 09:09:33;;;;;;;19.52;11.45;;;;;;;2.54;78.93;101280.84;5041447;28;20273;-81
2023/01/22 09:11:58;;;;;;;14.60;7.72;;;;;;;2.59;78.93;101283.84;5042956;28;20060;-78
2023/01/22 09:14:23;;;;;;;15.80;8.93;;;;;;;2.61;79.20;101281.81;5043142;28;20116;-79
2023/01/22 09:16:49;;;;;;;15.93;8.27;;;;;;;2.59;79.41;101283.00;5043091;28;20390;-78
2023/01/22 09:19:14;;;;;;;17.43;7.83;;;;;;;2.65;79.35;101282.31;5040761;28;20064;-77
2023/01/22 09:21:39;;;;;;;17.25;10.30;;;;;;;2.69;78.86;101280.94;5043004;28;20253;-78
2023/01/22 09:24:06;;;;;;;15.52;9.15;;;;;;;2.66;78.93;101278.59;5042601;28;20521;-78
2023/01/22 09:26:32;;;;;;;18.83;10.88;;;;;;;2.62;78.97;101283.50;5042107;28;20040;-78
2023/01/22 09:28:59;;;;;;;17.42;10.07;;;;;;;2.64;79.07;101281.47;5040891;28;20036;-78
2023/01/22 09:31:28;;;;;;;22.13;13.63;;;;;;;2.73;78.54;101279.56;5042546;28;20033;-77
2023/01/22 09:33:54;;;;;;;18.38;12.23;;;;;;;2.73;78.99;101278.72;5042444;28;20041;-78
2023/01/22 09:36:20;;;;;;;14.63;8.90;;;;;;;2.68;78.73;101285.47;5042671;28;20535;-78
2023/01/22 09:38:46;;;;;;;17.38;10.98;;;;;;;2.67;79.53;101285.66;5040705;28;20103;-77
2023/01/22 09:41:21;;;;;;;22.98;12.98;;;;;;;2.64;79.00;101289.56;5042395;28;20033;-78
2023/01/22 09:43:54;;;;;;;20.20;12.27;;;;;;;2.62;79.13;101291.59;5042319;28;20021;-78
2023/01/22 09:46:35;;;;;;;17.40;8.75;;;;;;;2.71;78.87;101299.63;5042243;28;20049;-77
2023/01/22 09:49:07;;;;;;;18.33;11.43;;;;;;;2.54;79.28;101288.91;5040792;28;20713;-78
2023/01/22 09:51:34;;;;;;;23.83;13.55;;;;;;;2.59;79.25;101289.22;5042503;28;20037;-77
2023/01/22 09:54:02;;;;;;;17.77;10.07;;;;;;;2.61;79.44;101287.19;5042775;28;20163;-79
2023/01/22 09:56:33;;;;;;;20.77;11.68;;;;;;;2.70;79.42;101289.88;5043678;28;20385;-79
2023/01/22 09:59:02;;;;;;;14.25;8.35;;;;;;;2.75;79.12;101282.94;5045194;28;20033;-79
2023/01/22 10:01:28;;;;;;;17.85;10.68;;;;;;;2.64;79.15;101286.88;5046256;28;20047;-77
2023/01/22 10:03:59;;;;;;;18.98;10.93;;;;;;;2.63;79.42;101289.72;5043938;28;20111;-76
2023/01/22 10:06:27;;;;;;;22.23;10.60;;;;;;;2.59;79.60;101289.22;5046190;28;20048;-78
2023/01/22 10:09:14;;;;;;;24.08;13.25;;;;;;;2.70;79.67;101295.25;5045076;28;20044;-78
2023/01/22 10:11:39;;;;;;;24.98;14.43;;;;;;;2.80;79.48;101285.97;5046095;28;20110;-79
2023/01/22 10:14:07;;;;;;;21.10;11.20;;;;;;;2.80;79.64;101291.34;5045756;28;20025;-78
2023/01/22 10:16:32;;;;;;;19.00;10.60;;;;;;;2.83;79.46;101290.13;5044365;28;20127;-78
2023/01/22 10:19:18;;;;;;;20.33;12.15;;;;;;;2.85;79.12;101285.41;5042337;28;20131;-78
2023/01/22 10:21:47;;;;;;;21.73;13.18;;;;;;;2.94;78.49;101285.38;5043353;28;20506;-78
2023/01/22 10:24:12;;;;;;;21.58;12.80;;;;;;;2.85;78.63;101287.28;5043005;28;20029;-78
2023/01/22 10:26:48;;;;;;;18.20;11.52;;;;;;;2.87;78.76;101286.06;5043374;28;20056;-78
2023/01/22 10:29:56;;;;;;;19.15;12.60;;;;;;;2.89;79.60;101283.19;5041501;28;20032;-78
2023/01/22 10:32:25;;;;;;;24.45;11.77;;;;;;;2.84;78.99;101281.06;5033444;28;20173;-79
2023/01/22 10:35:03;;;;;;;22.65;11.65;;;;;;;2.78;79.51;101282.59;5045226;28;20033;-77
2023/01/22 10:37:29;;;;;;;16.83;10.77;;;;;;;2.82;79.14;101276.84;5044841;28;20044;-77
2023/01/22 10:39:58;;;;;;;20.17;10.43;;;;;;;2.81;79.48;101278.69;5045135;28;20386;-78
2023/01/22 10:42:26;;;;;;;22.75;12.55;;;;;;;2.83;79.43;101279.34;5045356;28;20028;-78
2023/01/22 10:44:56;;;;;;;19.70;10.35;;;;;;;2.88;79.86;101271.59;5045281;28;20496;-78
2023/01/22 10:47:26;;;;;;;19.67;11.55;;;;;;;2.81;79.51;101281.38;5045047;28;20033;-79
2023/01/22 10:50:03;;;;;;;26.33;13.18;;;;;;;2.81;80.00;101276.00;5044316;28;20454;-78
2023/01/22 10:52:37;;;;;;;21.73;11.32;;;;;;;2.78;80.23;101281.75;5045488;28;20459;-79
2023/01/22 10:55:03;;;;;;;19.48;11.77;;;;;;;2.82;79.84;101280.38;5045244;28;20352;-79
2023/01/22 10:57:32;;;;;;;22.80;10.60;;;;;;;2.92;80.06;101283.72;5044476;28;20095;-77
2023/01/22 11:00:09;;;;;;;21.17;11.60;;;;;;;2.96;79.45;101267.19;5044846;28;20790;-79
2023/01/22 11:02:39;;;;;;;20.20;9.63;;;;;;;2.91;78.83;101279.31;5043709;28;20052;-80
2023/01/22 11:05:25;;;;;;;22.48;11.90;;;;;;;2.99;79.75;101277.63;5044985;28;20037;-78
2023/01/22 11:07:56;;;;;;;17.00;9.45;;;;;;;3.00;79.32;101273.88;5043129;28;20155;-78
2023/01/22 11:10:26;;;;;;;21.88;13.85;;;;;;;3.06;79.71;101280.44;5044781;28;20068;-76
2023/01/22 11:12:58;;;;;;;22.65;13.73;;;;;;;3.00;79.40;101273.88;5044965;28;20064;-78
2023/01/22 11:15:34;;;;;;;22.08;13.05;;;;;;;2.97;79.51;101274.25;5045202;28;20059;-79
2023/01/22 11:18:02;;;;;;;21.10;11.63;;;;;;;3.01;79.05;101280.97;5043644;28;20142;-79
2023/01/22 11:20:50;;;;;;;26.05;15.02;;;;;;;2.96;78.99;101275.25;5045057;28;20147;-79
2023/01/22 11:23:34;;;;;;;22.38;12.02;;;;;;;3.01;79.63;101275.59;5044645;28;20500;-79
2023/01/22 11:26:17;;;;;;;19.98;11.43;;;;;;;3.01;79.27;101270.19;5044245;28;20123;-77